createdAt,value
2018-06-23T00:00:59.905Z,100622.59
2018-06-23T00:03:28.889Z,100621.00
2018-06-23T00:05:57.843Z,100624.47
2018-06-23T00:08:27.002Z,100618.05
2018-06-23T00:10:55.988Z,100624.45
2018-06-23T00:13:24.959Z,100621.26
2018-06-23T00:15:53.942Z,100622.84
2018-06-23T00:18:22.910Z,100628.20
2018-06-23T00:20:51.880Z,100625.25
2018-06-23T00:23:20.927Z,100625.53
2018-06-23T00:25:55.218Z,100623.38
2018-06-23T00:28:24.182Z,100621.22
2018-06-23T00:30:53.164Z,100615.05
2018-06-23T00:33:22.417Z,100620.70
2018-06-23T00:35:51.397Z,100618.00
2018-06-23T00:38:20.561Z,100619.61
2018-06-23T00:40:49.580Z,100618.53
2018-06-23T00:43:18.576Z,100620.69
2018-06-23T00:45:47.581Z,100619.58
2018-06-23T00:48:16.546Z,100622.81
2018-06-23T00:50:45.547Z,100619.33
2018-06-23T00:53:15.011Z,100614.73
2018-06-23T00:55:43.970Z,100612.05
2018-06-23T00:58:13.048Z,100614.20
2018-06-23T01:00:42.048Z,100620.36
2018-06-23T01:03:11.046Z,100615.80
2018-06-23T01:05:40.284Z,100617.40
2018-06-23T01:08:09.326Z,100618.73
2018-06-23T01:10:38.332Z,100614.19
2018-06-23T01:13:07.439Z,100616.34
2018-06-23T01:15:36.666Z,100614.44
2018-06-23T01:18:05.645Z,100611.48
2018-06-23T01:20:34.628Z,100619.54
2018-06-23T01:23:03.609Z,100617.64
2018-06-23T01:25:32.585Z,100620.34
2018-06-23T01:28:01.571Z,100620.34
2018-06-23T01:30:30.611Z,100621.14
2018-06-23T01:32:59.724Z,100622.23
2018-06-23T01:35:28.720Z,100620.86
2018-06-23T01:37:57.706Z,100615.53
2018-06-23T01:40:26.821Z,100621.16
2018-06-23T01:42:55.846Z,100621.70
2018-06-23T01:45:24.876Z,100612.30
2018-06-23T01:47:53.899Z,100617.13
2018-06-23T01:50:22.847Z,100618.73
2018-06-23T01:52:51.825Z,100612.03
2018-06-23T01:55:20.891Z,100614.42
2018-06-23T01:57:49.916Z,100612.84
2018-06-23T02:00:18.933Z,100612.58
2018-06-23T02:02:47.973Z,100611.23
2018-06-23T02:05:16.960Z,100618.75
2018-06-23T02:07:45.981Z,100613.63
2018-06-23T02:10:14.976Z,100618.72
2018-06-23T02:12:44.029Z,100618.70
2018-06-23T02:15:12.991Z,100609.56
2018-06-23T02:17:47.454Z,100611.73
2018-06-23T02:20:21.720Z,100611.75
2018-06-23T02:22:56.039Z,100617.92
2018-06-23T02:25:30.353Z,100618.98
2018-06-23T02:28:04.756Z,100610.38
2018-06-23T02:30:39.217Z,100610.13
2018-06-23T02:33:14.742Z,100610.66
2018-06-23T02:35:43.987Z,100612.78
2018-06-23T02:38:13.069Z,100615.45
2018-06-23T02:40:42.107Z,100610.09
2018-06-23T02:43:11.101Z,100614.94
2018-06-23T02:45:40.071Z,100614.95
2018-06-23T02:48:09.091Z,100613.92
2018-06-23T02:50:38.081Z,100611.75
2018-06-23T02:53:07.057Z,100614.70
2018-06-23T02:55:36.026Z,100611.47
2018-06-23T02:58:05.181Z,100614.43
2018-06-23T03:00:34.156Z,100617.91
2018-06-23T03:03:03.139Z,100618.17
2018-06-23T03:05:32.141Z,100618.97
2018-06-23T03:08:01.122Z,100623.53
2018-06-23T03:10:30.150Z,100619.78
2018-06-23T03:12:59.135Z,100618.16
2018-06-23T03:15:31.558Z,100621.36
2018-06-23T03:18:00.719Z,100620.05
2018-06-23T03:20:31.194Z,100621.93
2018-06-23T03:23:00.357Z,100624.64
2018-06-23T03:25:29.700Z,100621.95
2018-06-23T03:27:58.682Z,100618.16
2018-06-23T03:30:27.695Z,100618.20
2018-06-23T03:32:57.872Z,100621.13
2018-06-23T03:35:26.878Z,100613.64
2018-06-23T03:37:55.999Z,100623.56
2018-06-23T03:40:25.112Z,100626.25
2018-06-23T03:42:54.107Z,100623.55
2018-06-23T03:45:23.239Z,100629.70
2018-06-23T03:47:52.342Z,100621.12
2018-06-23T03:50:21.328Z,100626.45
2018-06-23T03:52:50.351Z,100619.16
2018-06-23T03:55:20.878Z,100621.59
2018-06-23T03:57:49.859Z,100625.62
2018-06-23T04:00:18.827Z,100626.97
2018-06-23T04:02:47.820Z,100621.03
2018-06-23T04:05:16.895Z,100624.03
2018-06-23T04:07:45.864Z,100619.98
2018-06-23T04:10:14.917Z,100613.80
2018-06-23T04:12:43.939Z,100621.02
2018-06-23T04:15:12.957Z,100626.67
2018-06-23T04:17:43.120Z,100622.58
2018-06-23T04:20:12.196Z,100624.49
2018-06-23T04:22:41.213Z,100626.10
2018-06-23T04:25:10.243Z,100625.04
2018-06-23T04:27:39.217Z,100625.57
2018-06-23T04:30:08.226Z,100628.20
2018-06-23T04:32:37.193Z,100635.18
2018-06-23T04:35:07.362Z,100634.87
2018-06-23T04:37:36.401Z,100628.73
2018-06-23T04:40:05.438Z,100628.46
2018-06-23T04:42:34.408Z,100634.88
2018-06-23T04:45:03.419Z,100638.63
2018-06-23T04:47:32.421Z,100637.02
2018-06-23T04:50:01.404Z,100640.98
2018-06-23T04:52:30.408Z,100635.89
2018-06-23T04:55:01.143Z,100640.55
2018-06-23T04:57:30.107Z,100648.05
2018-06-23T04:59:59.336Z,100644.57
2018-06-23T05:02:28.735Z,100651.02
2018-06-23T05:04:57.893Z,100648.36
2018-06-23T05:07:26.856Z,100656.45
2018-06-23T05:09:55.845Z,100652.64
2018-06-23T05:12:24.829Z,100647.75
2018-06-23T05:14:53.800Z,100652.02
2018-06-23T05:17:22.881Z,100648.28
2018-06-23T05:19:52.184Z,100647.11
2018-06-23T05:22:21.442Z,100641.91
2018-06-23T05:24:51.959Z,100643.78
2018-06-23T05:27:20.980Z,100650.05
2018-06-23T05:29:50.424Z,100655.73
2018-06-23T05:32:21.332Z,100643.09
2018-06-23T05:34:50.391Z,100644.69
2018-06-23T05:37:19.354Z,100643.12
2018-06-23T05:39:48.331Z,100636.45
2018-06-23T05:42:17.321Z,100635.14
2018-06-23T05:44:46.364Z,100640.23
2018-06-23T05:47:15.386Z,100634.95
2018-06-23T05:49:44.508Z,100630.16
2018-06-23T05:52:13.890Z,100634.06
2018-06-23T05:54:43.083Z,100632.74
2018-06-23T05:57:12.283Z,100641.86
2018-06-23T05:59:41.445Z,100638.29
2018-06-23T06:02:12.619Z,100635.70
2018-06-23T06:04:42.126Z,100629.91
2018-06-23T06:07:12.033Z,100627.47
2018-06-23T06:09:41.055Z,100626.98
2018-06-23T06:12:10.076Z,100627.64
2018-06-23T06:14:39.050Z,100624.39
2018-06-23T06:17:28.944Z,100618.41
2018-06-23T06:20:00.112Z,100619.00
2018-06-23T06:22:33.009Z,100616.03
2018-06-23T06:25:02.114Z,100607.00
2018-06-23T06:27:31.656Z,100619.96
2018-06-23T06:30:00.709Z,100609.48
2018-06-23T06:32:30.064Z,100608.97
2018-06-23T06:34:59.222Z,100608.64
2018-06-23T06:37:28.167Z,100604.77
2018-06-23T06:39:57.428Z,100593.08
2018-06-23T06:42:26.453Z,100593.33
2018-06-23T06:44:55.724Z,100590.55
2018-06-23T06:47:24.710Z,100591.92
2018-06-23T06:49:53.725Z,100587.38
2018-06-23T06:52:22.729Z,100596.45
2018-06-23T06:54:51.901Z,100585.84
2018-06-23T06:57:21.378Z,100580.56
2018-06-23T06:59:50.448Z,100578.83
2018-06-23T07:02:19.453Z,100584.96
2018-06-23T07:04:48.489Z,100583.48
2018-06-23T07:07:17.485Z,100586.78
2018-06-23T07:09:46.574Z,100581.75
2018-06-23T07:12:15.581Z,100586.52
2018-06-23T07:14:44.665Z,100588.80
2018-06-23T07:17:13.683Z,100578.03
2018-06-23T07:19:42.952Z,100579.20
2018-06-23T07:22:12.591Z,100576.45
2018-06-23T07:24:41.686Z,100569.09
2018-06-23T07:27:11.647Z,100569.74
2018-06-23T07:29:40.660Z,100568.25
2018-06-23T07:32:09.744Z,100569.31
2018-06-23T07:34:38.779Z,100567.06
2018-06-23T07:37:07.742Z,100581.33
2018-06-23T07:39:36.745Z,100581.83
2018-06-23T07:42:06.486Z,100574.27
2018-06-23T07:44:35.648Z,100579.59
2018-06-23T07:47:04.641Z,100577.08
2018-06-23T07:49:33.605Z,100588.38
2018-06-23T07:52:02.622Z,100585.11
2018-06-23T07:54:31.634Z,100594.28
2018-06-23T07:57:00.663Z,100594.02
2018-06-23T07:59:29.624Z,100596.70
2018-06-23T08:01:58.907Z,100601.64
2018-06-23T08:04:28.922Z,100599.87
2018-06-23T08:06:58.000Z,100604.33
2018-06-23T08:09:27.091Z,100614.42
2018-06-23T08:11:57.232Z,100614.72
2018-06-23T08:14:26.264Z,100610.48
2018-06-23T08:16:55.712Z,100614.84
2018-06-23T08:19:24.670Z,100620.11
2018-06-23T08:21:54.249Z,100616.70
2018-06-23T08:24:23.306Z,100611.31
2018-06-23T08:26:52.290Z,100612.19
2018-06-23T08:29:21.285Z,100617.22
2018-06-23T08:31:50.313Z,100619.44
2018-06-23T08:34:19.335Z,100625.75
2018-06-23T08:36:48.304Z,100620.13
2018-06-23T08:39:17.608Z,100623.31
2018-06-23T08:41:46.623Z,100618.83
2018-06-23T08:44:15.697Z,100624.00
2018-06-23T08:46:46.278Z,100620.55
2018-06-23T08:49:15.293Z,100620.55
2018-06-23T08:51:46.337Z,100625.96
2018-06-23T08:54:15.339Z,100619.44
2018-06-23T08:56:44.323Z,100619.78
2018-06-23T08:59:13.839Z,100637.11
2018-06-23T09:01:42.938Z,100629.70
2018-06-23T09:04:11.948Z,100628.98
2018-06-23T09:06:41.446Z,100624.77
2018-06-23T09:09:11.130Z,100627.06
2018-06-23T09:11:40.558Z,100624.82
2018-06-23T09:14:09.775Z,100627.32
2018-06-23T09:16:38.827Z,100631.92
2018-06-23T09:19:07.845Z,100638.28
2018-06-23T09:21:36.931Z,100638.32
2018-06-23T09:24:05.916Z,100629.25
2018-06-23T09:26:36.286Z,100629.25
2018-06-23T09:29:05.260Z,100634.50
2018-06-23T09:31:34.731Z,100627.05
2018-06-23T09:34:03.942Z,100632.59
2018-06-23T09:36:33.022Z,100617.44
2018-06-23T09:39:02.075Z,100615.73
2018-06-23T09:41:31.135Z,100616.84
2018-06-23T09:44:00.135Z,100618.70
2018-06-23T09:46:29.121Z,100613.13
2018-06-23T09:48:58.075Z,100620.06
2018-06-23T09:51:28.667Z,100623.17
2018-06-23T09:53:57.633Z,100624.88
2018-06-23T09:56:26.664Z,100629.69
2018-06-23T09:58:55.618Z,100620.95
2018-06-23T10:01:24.592Z,100630.64
2018-06-23T10:03:53.579Z,100633.96
2018-06-23T10:06:22.663Z,100633.23
2018-06-23T10:08:51.666Z,100635.61
2018-06-23T10:11:20.714Z,100634.98
2018-06-23T10:13:49.845Z,100637.67
2018-06-23T10:16:18.882Z,100637.04
2018-06-23T10:18:47.897Z,100637.13
2018-06-23T10:21:16.864Z,100630.36
2018-06-23T10:23:45.846Z,100630.88
2018-06-23T10:26:14.852Z,100626.61
2018-06-23T10:28:43.904Z,100635.89
2018-06-23T10:31:12.944Z,100627.10
2018-06-23T10:33:42.018Z,100631.96
2018-06-23T10:36:11.022Z,100632.20
2018-06-23T10:38:40.096Z,100626.48
2018-06-23T10:41:09.025Z,100625.34
2018-06-23T10:43:38.095Z,100621.78
2018-06-23T10:46:07.114Z,100621.47
2018-06-23T10:48:36.114Z,100616.67
2018-06-23T10:51:06.095Z,100626.56
2018-06-23T10:53:35.230Z,100626.03
2018-06-23T10:56:04.432Z,100625.72
2018-06-23T10:58:33.413Z,100618.50
2018-06-23T11:01:02.444Z,100625.73
2018-06-23T11:03:31.473Z,100619.75
2018-06-23T11:06:00.591Z,100617.83
2018-06-23T11:08:29.574Z,100623.22
2018-06-23T11:10:58.580Z,100619.64
2018-06-23T11:13:27.732Z,100627.45
2018-06-23T11:15:56.794Z,100621.03
2018-06-23T11:18:25.747Z,100626.69
2018-06-23T11:20:54.782Z,100624.50
2018-06-23T11:23:23.752Z,100624.77
2018-06-23T11:25:52.731Z,100625.38
2018-06-23T11:28:21.692Z,100622.91
2018-06-23T11:30:50.732Z,100610.77
2018-06-23T11:33:19.688Z,100618.20
2018-06-23T11:35:48.691Z,100620.59
2018-06-23T11:38:17.745Z,100611.94
2018-06-23T11:40:46.770Z,100616.75
2018-06-23T11:43:15.735Z,100621.00
2018-06-23T11:45:44.708Z,100616.47
2018-06-23T11:48:13.678Z,100616.87
2018-06-23T11:50:42.649Z,100620.79
2018-06-23T11:53:11.679Z,100615.37
2018-06-23T11:55:40.620Z,100611.12
2018-06-23T11:58:09.583Z,100615.16
2018-06-23T12:00:38.549Z,100618.61
2018-06-23T12:03:07.596Z,100604.81
2018-06-23T12:05:36.531Z,100609.38
2018-06-23T12:08:05.637Z,100610.59
2018-06-23T12:10:34.741Z,100602.09
2018-06-23T12:13:03.839Z,100600.66
2018-06-23T12:15:32.807Z,100608.36
2018-06-23T12:18:01.859Z,100591.33
2018-06-23T12:20:30.896Z,100600.81
2018-06-23T12:22:59.891Z,100596.25
2018-06-23T12:25:29.155Z,100594.33
2018-06-23T12:27:58.342Z,100587.77
2018-06-23T12:30:27.334Z,100587.34
2018-06-23T12:32:56.332Z,100578.49
2018-06-23T12:35:25.339Z,100577.70
2018-06-23T12:37:54.325Z,100571.64
2018-06-23T12:40:23.299Z,100572.64
2018-06-23T12:42:52.372Z,100572.14
2018-06-23T12:45:21.367Z,100571.64
2018-06-23T12:47:50.377Z,100571.33
2018-06-23T12:50:19.387Z,100565.80
2018-06-23T12:52:48.516Z,100568.58
2018-06-23T12:55:20.121Z,100564.59
2018-06-23T12:57:49.200Z,100559.59
2018-06-23T13:00:18.168Z,100558.39
2018-06-23T13:02:47.162Z,100564.38
2018-06-23T13:05:16.204Z,100552.22
2018-06-23T13:07:45.218Z,100554.25
2018-06-23T13:10:15.397Z,100551.75
2018-06-23T13:12:44.502Z,100539.84
2018-06-23T13:15:13.536Z,100543.56
2018-06-23T13:17:42.581Z,100534.52
2018-06-23T13:20:11.633Z,100541.28
2018-06-23T13:22:40.650Z,100523.56
2018-06-23T13:25:09.677Z,100520.78
2018-06-23T13:27:38.658Z,100518.90
2018-06-23T13:30:07.634Z,100514.55
2018-06-23T13:32:36.644Z,100522.06
2018-06-23T13:35:05.644Z,100530.08
2018-06-23T13:37:34.669Z,100517.09
2018-06-23T13:40:03.653Z,100502.81
2018-06-23T13:42:33.565Z,100516.10
2018-06-23T13:45:02.769Z,100510.39
2018-06-23T13:47:32.025Z,100505.22
2018-06-23T13:50:01.016Z,100505.30
2018-06-23T13:52:30.324Z,100518.18
2018-06-23T13:54:59.385Z,100515.84
2018-06-23T13:57:28.359Z,100521.59
2018-06-23T13:59:57.543Z,100525.47
2018-06-23T14:02:26.618Z,100527.58
2018-06-23T14:04:55.621Z,100543.44
2018-06-23T14:07:24.814Z,100545.28
2018-06-23T14:09:53.838Z,100544.09
2018-06-23T14:12:22.803Z,100550.95
2018-06-23T14:14:51.861Z,100540.59
2018-06-23T14:17:20.837Z,100533.66
2018-06-23T14:19:49.946Z,100540.25
2018-06-23T14:22:18.956Z,100549.31
2018-06-23T14:24:47.960Z,100549.31
2018-06-23T14:27:17.005Z,100545.84
2018-06-23T14:29:46.163Z,100549.78
2018-06-23T14:32:15.451Z,100557.16
2018-06-23T14:34:44.313Z,100561.53
2018-06-23T14:37:13.367Z,100559.59
2018-06-23T14:39:42.483Z,100554.00
2018-06-23T14:42:11.470Z,100563.11
2018-06-23T14:44:40.471Z,100561.55
2018-06-23T14:47:09.470Z,100552.03
2018-06-23T14:49:38.432Z,100557.17
2018-06-23T14:52:07.490Z,100549.95
2018-06-23T14:54:36.466Z,100542.39
2018-06-23T14:57:05.605Z,100559.42
2018-06-23T14:59:34.780Z,100563.91
2018-06-23T15:02:03.724Z,100570.00
2018-06-23T15:04:32.804Z,100571.77
2018-06-23T15:07:01.828Z,100569.54
2018-06-23T15:09:42.106Z,100569.81
2018-06-23T15:12:22.732Z,100577.75
2018-06-23T15:14:52.450Z,100576.19
2018-06-23T15:17:21.514Z,100576.44
2018-06-23T15:19:50.483Z,100576.70
2018-06-23T15:22:19.510Z,100570.80
2018-06-23T15:24:48.476Z,100570.48
2018-06-23T15:27:17.488Z,100568.06
2018-06-23T15:29:46.445Z,100575.31
2018-06-23T15:32:15.439Z,100575.53
2018-06-23T15:34:44.442Z,100583.33
2018-06-23T15:37:13.402Z,100577.36
2018-06-23T15:39:42.429Z,100575.93
2018-06-23T15:42:11.479Z,100576.97
2018-06-23T15:44:40.542Z,100579.23
2018-06-23T15:47:09.600Z,100582.80
2018-06-23T15:49:38.570Z,100580.50
2018-06-23T15:52:07.574Z,100581.62
2018-06-23T15:54:36.552Z,100584.28
2018-06-23T15:57:05.725Z,100585.98
2018-06-23T15:59:34.791Z,100590.39
2018-06-23T16:02:03.882Z,100588.25
2018-06-23T16:04:33.041Z,100591.21
2018-06-23T16:07:02.511Z,100589.54
2018-06-23T16:09:31.556Z,100592.48
2018-06-23T16:12:00.535Z,100590.62
2018-06-23T16:14:29.554Z,100593.88
2018-06-23T16:16:58.557Z,100590.39
2018-06-23T16:19:27.580Z,100591.73
2018-06-23T16:21:56.548Z,100584.16
2018-06-23T16:24:25.524Z,100589.80
2018-06-23T16:26:54.487Z,100594.08
2018-06-23T16:29:23.543Z,100591.73
2018-06-23T16:31:52.812Z,100597.89
2018-06-23T16:34:21.810Z,100595.22
2018-06-23T16:36:50.849Z,100600.92
2018-06-23T16:39:19.932Z,100586.49
2018-06-23T16:41:48.933Z,100594.62
2018-06-23T16:44:17.921Z,100583.63
2018-06-23T16:46:47.128Z,100583.92
2018-06-23T16:49:16.120Z,100583.66
2018-06-23T16:51:45.113Z,100578.25
2018-06-23T16:54:14.131Z,100571.52
2018-06-23T16:56:43.243Z,100574.75
2018-06-23T16:59:12.223Z,100572.35
2018-06-23T17:01:41.236Z,100572.92
2018-06-23T17:04:10.279Z,100570.97
2018-06-23T17:06:39.351Z,100569.37
2018-06-23T17:09:09.697Z,100564.72
2018-06-23T17:11:39.096Z,100563.16
2018-06-23T17:14:08.385Z,100555.56
2018-06-23T17:16:37.524Z,100553.72
2018-06-23T17:19:06.797Z,100554.02
2018-06-23T17:21:36.087Z,100558.91
2018-06-23T17:24:05.412Z,100551.12
2018-06-23T17:26:34.770Z,100550.58
2018-06-23T17:29:03.836Z,100551.12
2018-06-23T17:31:32.925Z,100550.30
2018-06-23T17:34:01.935Z,100556.98
2018-06-23T17:36:30.987Z,100551.30
2018-06-23T17:39:00.160Z,100549.19
2018-06-23T17:41:29.224Z,100552.13
2018-06-23T17:43:58.261Z,100548.59
2018-06-23T17:46:27.267Z,100545.36
2018-06-23T17:48:56.448Z,100550.44
2018-06-23T17:51:25.447Z,100544.23
2018-06-23T17:53:55.160Z,100540.00
2018-06-23T17:56:24.480Z,100545.66
2018-06-23T17:58:53.605Z,100552.63
2018-06-23T18:01:22.637Z,100554.27
2018-06-23T18:03:51.673Z,100550.31
2018-06-23T18:06:20.735Z,100545.77
2018-06-23T18:08:49.707Z,100552.01
2018-06-23T18:11:18.764Z,100546.88
2018-06-23T18:13:47.798Z,100546.64
2018-06-23T18:16:16.879Z,100543.69
2018-06-23T18:18:45.903Z,100546.41
2018-06-23T18:21:15.047Z,100542.09
2018-06-23T18:23:44.065Z,100538.06
2018-06-23T18:26:13.174Z,100538.84
2018-06-23T18:28:42.193Z,100531.30
2018-06-23T18:31:11.169Z,100540.70
2018-06-23T18:33:40.151Z,100538.02
2018-06-23T18:36:09.144Z,100543.33
2018-06-23T18:38:38.123Z,100552.48
2018-06-23T18:41:07.086Z,100543.94
2018-06-23T18:43:36.144Z,100541.25
2018-06-23T18:46:05.216Z,100547.98
2018-06-23T18:48:34.263Z,100550.89
2018-06-23T18:51:03.392Z,100548.68
2018-06-23T18:53:32.382Z,100546.61
2018-06-23T18:56:01.387Z,100543.92
2018-06-23T18:58:30.402Z,100550.59
2018-06-23T19:00:59.517Z,100549.78
2018-06-23T19:03:28.664Z,100555.63
2018-06-23T19:05:59.107Z,100554.83
2018-06-23T19:08:28.081Z,100556.73
2018-06-23T19:10:57.159Z,100559.98
2018-06-23T19:13:26.138Z,100562.36
2018-06-23T19:15:55.155Z,100563.45
2018-06-23T19:18:24.150Z,100560.47
2018-06-23T19:20:53.158Z,100563.73
2018-06-23T19:23:22.504Z,100565.05
2018-06-23T19:25:51.518Z,100564.00
2018-06-23T19:28:20.510Z,100572.92
2018-06-23T19:30:49.646Z,100569.64
2018-06-23T19:33:18.743Z,100570.15
2018-06-23T19:35:47.804Z,100574.48
2018-06-23T19:38:17.079Z,100576.91
2018-06-23T19:40:46.108Z,100575.61
2018-06-23T19:43:15.227Z,100582.90
2018-06-23T19:45:44.278Z,100584.25
2018-06-23T19:48:13.262Z,100589.93
2018-06-23T19:50:42.311Z,100591.82
2018-06-23T19:53:11.339Z,100584.83
2018-06-23T19:55:40.323Z,100586.72
2018-06-23T19:58:09.369Z,100586.73
2018-06-23T20:00:38.875Z,100592.66
2018-06-23T20:03:08.360Z,100595.88
2018-06-23T20:05:37.402Z,100593.19
2018-06-23T20:08:06.418Z,100593.72
2018-06-23T20:10:35.520Z,100602.86
2018-06-23T20:13:04.838Z,100594.23
2018-06-23T20:15:34.673Z,100601.25
2018-06-23T20:18:03.756Z,100590.20
2018-06-23T20:20:33.222Z,100596.92
2018-06-23T20:23:02.350Z,100595.58
2018-06-23T20:25:31.539Z,100595.55
2018-06-23T20:28:00.617Z,100595.02
2018-06-23T20:30:29.650Z,100589.09
2018-06-23T20:32:58.710Z,100591.78
2018-06-23T20:35:27.801Z,100598.73
2018-06-23T20:37:56.874Z,100599.28
2018-06-23T20:40:25.971Z,100600.88
2018-06-23T20:42:54.977Z,100600.05
2018-06-23T20:45:23.990Z,100604.89
2018-06-23T20:47:53.003Z,100608.40
2018-06-23T20:50:22.097Z,100608.40
2018-06-23T20:52:51.151Z,100612.66
2018-06-23T20:55:20.204Z,100613.19
2018-06-23T20:57:49.243Z,100612.66
2018-06-23T21:00:18.298Z,100609.17
2018-06-23T21:02:47.672Z,100609.45
2018-06-23T21:05:16.694Z,100608.62
2018-06-23T21:07:45.777Z,100606.51
2018-06-23T21:10:26.947Z,100608.12
2018-06-23T21:12:56.089Z,100606.00
2018-06-23T21:15:25.100Z,100608.16
2018-06-23T21:17:54.115Z,100606.27
2018-06-23T21:20:23.522Z,100611.66
2018-06-23T21:22:52.512Z,100607.67
2018-06-23T21:25:21.513Z,100611.70
2018-06-23T21:27:50.556Z,100614.67
2018-06-23T21:30:19.593Z,100617.08
2018-06-23T21:32:48.663Z,100614.42
2018-06-23T21:35:17.754Z,100614.44
2018-06-23T21:37:46.784Z,100616.87
2018-06-23T21:40:15.854Z,100619.30
2018-06-23T21:42:44.981Z,100616.36
2018-06-23T21:45:14.075Z,100616.41
2018-06-23T21:47:43.248Z,100613.22
2018-06-23T21:50:12.236Z,100619.96
2018-06-23T21:52:41.257Z,100611.36
2018-06-23T21:55:10.245Z,100612.72
2018-06-23T21:57:39.440Z,100611.90
2018-06-23T22:00:12.363Z,100610.04
2018-06-23T22:02:41.362Z,100615.93
2018-06-23T22:05:10.349Z,100614.85
2018-06-23T22:07:39.317Z,100612.44
2018-06-23T22:10:08.303Z,100607.62
2018-06-23T22:12:37.300Z,100604.14
2018-06-23T22:15:06.274Z,100610.29
2018-06-23T22:17:35.334Z,100610.30
2018-06-23T22:20:04.327Z,100612.77
2018-06-23T22:22:33.316Z,100604.42
2018-06-23T22:25:02.429Z,100609.55
2018-06-23T22:27:31.549Z,100607.11
2018-06-23T22:30:00.584Z,100604.42
2018-06-23T22:32:29.574Z,100604.70
2018-06-23T22:34:58.550Z,100601.20
2018-06-23T22:37:27.790Z,100603.36
2018-06-23T22:39:56.769Z,100603.89
2018-06-23T22:42:25.731Z,100606.58
2018-06-23T22:44:54.795Z,100607.40
2018-06-23T22:47:23.829Z,100603.95
2018-06-23T22:49:52.819Z,100601.53
2018-06-23T22:52:21.801Z,100596.15
2018-06-23T22:54:50.875Z,100594.27
2018-06-23T22:57:19.863Z,100588.12
2018-06-23T22:59:48.906Z,100593.26
2018-06-23T23:02:17.920Z,100588.41
2018-06-23T23:04:46.923Z,100584.69
2018-06-23T23:07:15.913Z,100590.86
2018-06-23T23:09:44.919Z,100584.95
2018-06-23T23:12:14.013Z,100579.84
2018-06-23T23:14:43.032Z,100590.59
2018-06-23T23:17:12.109Z,100584.14
2018-06-23T23:19:41.103Z,100582.53
2018-06-23T23:22:10.089Z,100584.16
2018-06-23T23:24:39.090Z,100578.50
2018-06-23T23:27:08.098Z,100575.28
2018-06-23T23:29:37.191Z,100577.71
2018-06-23T23:32:06.283Z,100571.80
2018-06-23T23:34:35.262Z,100574.48
2018-06-23T23:37:04.276Z,100575.28
2018-06-23T23:39:33.305Z,100568.05
2018-06-23T23:42:03.419Z,100564.54
2018-06-23T23:44:32.544Z,100568.85
2018-06-23T23:47:01.646Z,100570.99
2018-06-23T23:49:30.679Z,100568.83
2018-06-23T23:51:59.757Z,100563.73
2018-06-23T23:54:28.709Z,100567.23
2018-06-23T23:56:57.683Z,100568.59
2018-06-23T23:59:26.678Z,100561.05
